sensor_id;sensor_type;location;lat;lon;timestamp;temperature;humidity
2973;DHT22;1496;51.404;7.232;2023-11-21T00:02:20;8.00;99.90
2973;DHT22;1496;51.404;7.232;2023-11-21T00:04:48;8.10;99.90
2973;DHT22;1496;51.404;7.232;2023-11-21T00:07:14;8.00;99.90
2973;DHT22;1496;51.404;7.232;2023-11-21T00:09:40;8.10;99.90
2973;DHT22;1496;51.404;7.232;2023-11-21T00:12:07;8.10;99.90
2973;DHT22;1496;51.404;7.232;2023-11-21T00:14:38;8.10;99.90
2973;DHT22;1496;51.404;7.232;2023-11-21T00:17:04;8.10;99.90
2973;DHT22;1496;51.404;7.232;2023-11-21T00:19:31;8.10;99.90
2973;DHT22;1496;51.404;7.232;2023-11-21T00:21:56;8.00;99.90
2973;DHT22;1496;51.404;7.232;2023-11-21T00:24:24;7.90;99.90
2973;DHT22;1496;51.404;7.232;2023-11-21T00:26:50;7.90;99.90
2973;DHT22;1496;51.404;7.232;2023-11-21T00:29:17;7.80;99.90
2973;DHT22;1496;51.404;7.232;2023-11-21T00:31:44;7.70;99.90
2973;DHT22;1496;51.404;7.232;2023-11-21T00:34:12;7.60;99.90
2973;DHT22;1496;51.404;7.232;2023-11-21T00:36:38;7.50;99.90
2973;DHT22;1496;51.404;7.232;2023-11-21T00:39:03;7.40;99.90
2973;DHT22;1496;51.404;7.232;2023-11-21T00:41:31;7.40;99.90
2973;DHT22;1496;51.404;7.232;2023-11-21T00:43:57;7.60;99.90
2973;DHT22;1496;51.404;7.232;2023-11-21T00:46:23;7.70;99.90
2973;DHT22;1496;51.404;7.232;2023-11-21T00:48:49;7.60;99.90
2973;DHT22;1496;51.404;7.232;2023-11-21T00:51:16;7.80;99.90
2973;DHT22;1496;51.404;7.232;2023-11-21T00:53:43;7.80;99.90
2973;DHT22;1496;51.404;7.232;2023-11-21T00:56:08;7.90;99.90
2973;DHT22;1496;51.404;7.232;2023-11-21T00:58:34;7.90;99.90
2973;DHT22;1496;51.404;7.232;2023-11-21T01:00:59;8.00;99.90
2973;DHT22;1496;51.404;7.232;2023-11-21T01:03:25;8.00;99.90
2973;DHT22;1496;51.404;7.232;2023-11-21T01:05:51;8.00;99.90
2973;DHT22;1496;51.404;7.232;2023-11-21T01:08:16;8.10;99.90
2973;DHT22;1496;51.404;7.232;2023-11-21T01:10:42;8.00;99.90
2973;DHT22;1496;51.404;7.232;2023-11-21T01:13:08;7.90;99.90
2973;DHT22;1496;51.404;7.232;2023-11-21T01:15:34;7.90;99.90
2973;DHT22;1496;51.404;7.232;2023-11-21T01:18:00;7.90;99.90
2973;DHT22;1496;51.404;7.232;2023-11-21T01:20:26;7.80;99.90
2973;DHT22;1496;51.404;7.232;2023-11-21T01:22:51;7.80;99.90
2973;DHT22;1496;51.404;7.232;2023-11-21T01:25:17;7.70;99.90
2973;DHT22;1496;51.404;7.232;2023-11-21T01:27:43;7.80;99.90
2973;DHT22;1496;51.404;7.232;2023-11-21T01:30:09;7.80;99.90
2973;DHT22;1496;51.404;7.232;2023-11-21T01:32:38;7.80;99.90
2973;DHT22;1496;51.404;7.232;2023-11-21T01:35:05;7.80;99.90
2973;DHT22;1496;51.404;7.232;2023-11-21T01:37:32;7.90;99.90
2973;DHT22;1496;51.404;7.232;2023-11-21T01:39:59;7.90;99.90
2973;DHT22;1496;51.404;7.232;2023-11-21T01:42:25;8.00;99.90
2973;DHT22;1496;51.404;7.232;2023-11-21T01:44:50;8.10;99.90
2973;DHT22;1496;51.404;7.232;2023-11-21T01:47:17;8.20;99.90
2973;DHT22;1496;51.404;7.232;2023-11-21T01:49:44;8.30;99.90
2973;DHT22;1496;51.404;7.232;2023-11-21T01:52:10;8.30;99.90
2973;DHT22;1496;51.404;7.232;2023-11-21T01:54:37;8.30;99.90
2973;DHT22;1496;51.404;7.232;2023-11-21T01:57:04;8.20;99.90
2973;DHT22;1496;51.404;7.232;2023-11-21T01:59:38;8.20;99.90
2973;DHT22;1496;51.404;7.232;2023-11-21T02:02:07;8.20;99.90
2973;DHT22;1496;51.404;7.232;2023-11-21T02:04:36;8.20;99.90
2973;DHT22;1496;51.404;7.232;2023-11-21T02:07:03;8.20;99.90
2973;DHT22;1496;51.404;7.232;2023-11-21T02:09:32;8.20;99.90
2973;DHT22;1496;51.404;7.232;2023-11-21T02:11:59;8.20;99.90
2973;DHT22;1496;51.404;7.232;2023-11-21T02:14:26;8.20;99.90
2973;DHT22;1496;51.404;7.232;2023-11-21T02:16:53;8.20;99.90
2973;DHT22;1496;51.404;7.232;2023-11-21T02:19:21;8.20;99.90
2973;DHT22;1496;51.404;7.232;2023-11-21T02:21:51;8.30;99.90
2973;DHT22;1496;51.404;7.232;2023-11-21T02:24:26;8.20;99.90
2973;DHT22;1496;51.404;7.232;2023-11-21T02:26:52;8.30;99.90
2973;DHT22;1496;51.404;7.232;2023-11-21T02:29:19;8.30;99.90
2973;DHT22;1496;51.404;7.232;2023-11-21T02:31:48;8.20;99.90
2973;DHT22;1496;51.404;7.232;2023-11-21T02:34:16;8.00;99.90
2973;DHT22;1496;51.404;7.232;2023-11-21T02:36:42;7.90;99.90
2973;DHT22;1496;51.404;7.232;2023-11-21T02:39:09;7.80;99.90
2973;DHT22;1496;51.404;7.232;2023-11-21T02:41:34;7.80;99.90
2973;DHT22;1496;51.404;7.232;2023-11-21T02:44:00;7.70;99.90
2973;DHT22;1496;51.404;7.232;2023-11-21T02:46:26;7.80;99.90
2973;DHT22;1496;51.404;7.232;2023-11-21T02:48:52;7.80;99.90
2973;DHT22;1496;51.404;7.232;2023-11-21T02:51:20;7.80;99.90
2973;DHT22;1496;51.404;7.232;2023-11-21T02:53:45;7.70;99.90
2973;DHT22;1496;51.404;7.232;2023-11-21T02:56:12;7.80;99.90
2973;DHT22;1496;51.404;7.232;2023-11-21T02:58:41;7.90;99.90
2973;DHT22;1496;51.404;7.232;2023-11-21T03:01:09;8.00;99.90
2973;DHT22;1496;51.404;7.232;2023-11-21T03:03:37;8.00;99.90
2973;DHT22;1496;51.404;7.232;2023-11-21T03:06:06;8.10;99.90
2973;DHT22;1496;51.404;7.232;2023-11-21T03:08:32;8.10;99.90
2973;DHT22;1496;51.404;7.232;2023-11-21T03:10:58;8.10;99.90
2973;DHT22;1496;51.404;7.232;2023-11-21T03:13:24;8.20;99.90
2973;DHT22;1496;51.404;7.232;2023-11-21T03:15:49;8.20;99.90
2973;DHT22;1496;51.404;7.232;2023-11-21T03:18:15;8.10;99.90
2973;DHT22;1496;51.404;7.232;2023-11-21T03:20:43;8.20;99.90
2973;DHT22;1496;51.404;7.232;2023-11-21T03:23:12;8.20;99.90
2973;DHT22;1496;51.404;7.232;2023-11-21T03:25:37;8.30;99.90
2973;DHT22;1496;51.404;7.232;2023-11-21T03:28:03;8.30;99.90
2973;DHT22;1496;51.404;7.232;2023-11-21T03:30:29;8.30;99.90
2973;DHT22;1496;51.404;7.232;2023-11-21T03:32:54;8.30;99.90
2973;DHT22;1496;51.404;7.232;2023-11-21T03:35:20;8.40;99.90
2973;DHT22;1496;51.404;7.232;2023-11-21T03:37:47;8.30;99.90
2973;DHT22;1496;51.404;7.232;2023-11-21T03:40:12;8.30;99.90
2973;DHT22;1496;51.404;7.232;2023-11-21T03:42:38;8.30;99.90
2973;DHT22;1496;51.404;7.232;2023-11-21T03:45:05;8.30;99.90
2973;DHT22;1496;51.404;7.232;2023-11-21T03:47:31;8.20;99.90
2973;DHT22;1496;51.404;7.232;2023-11-21T03:49:57;8.10;99.90
2973;DHT22;1496;51.404;7.232;2023-11-21T03:52:24;7.70;99.90
2973;DHT22;1496;51.404;7.232;2023-11-21T03:54:50;7.50;99.90
2973;DHT22;1496;51.404;7.232;2023-11-21T03:57:15;7.40;99.90
2973;DHT22;1496;51.404;7.232;2023-11-21T03:59:42;7.40;99.90
2973;DHT22;1496;51.404;7.232;2023-11-21T04:02:09;7.40;99.90
2973;DHT22;1496;51.404;7.232;2023-11-21T04:04:35;7.30;99.90
2973;DHT22;1496;51.404;7.232;2023-11-21T04:07:01;7.30;99.90
2973;DHT22;1496;51.404;7.232;2023-11-21T04:09:27;7.40;99.90
2973;DHT22;1496;51.404;7.232;2023-11-21T04:11:53;7.50;99.90
2973;DHT22;1496;51.404;7.232;2023-11-21T04:14:20;7.50;99.90
2973;DHT22;1496;51.404;7.232;2023-11-21T04:16:45;7.50;99.90
2973;DHT22;1496;51.404;7.232;2023-11-21T04:19:11;7.50;99.90
2973;DHT22;1496;51.404;7.232;2023-11-21T04:21:40;7.70;99.90
2973;DHT22;1496;51.404;7.232;2023-11-21T04:24:06;7.80;99.90
2973;DHT22;1496;51.404;7.232;2023-11-21T04:26:32;7.90;99.90
2973;DHT22;1496;51.404;7.232;2023-11-21T04:28:58;7.90;99.90
2973;DHT22;1496;51.404;7.232;2023-11-21T04:31:24;7.90;99.90
2973;DHT22;1496;51.404;7.232;2023-11-21T04:33:49;7.90;99.90
2973;DHT22;1496;51.404;7.232;2023-11-21T04:36:15;7.90;99.90
2973;DHT22;1496;51.404;7.232;2023-11-21T04:38:41;8.00;99.90
2973;DHT22;1496;51.404;7.232;2023-11-21T04:41:07;8.10;99.90
2973;DHT22;1496;51.404;7.232;2023-11-21T04:43:32;8.10;99.90
2973;DHT22;1496;51.404;7.232;2023-11-21T04:45:58;8.10;99.90
2973;DHT22;1496;51.404;7.232;2023-11-21T04:48:23;8.10;99.90
2973;DHT22;1496;51.404;7.232;2023-11-21T04:50:49;8.10;99.90
2973;DHT22;1496;51.404;7.232;2023-11-21T04:53:15;8.00;99.90
2973;DHT22;1496;51.404;7.232;2023-11-21T04:55:41;7.80;99.90
2973;DHT22;1496;51.404;7.232;2023-11-21T04:58:07;7.70;99.90
2973;DHT22;1496;51.404;7.232;2023-11-21T05:00:34;7.60;99.90
2973;DHT22;1496;51.404;7.232;2023-11-21T05:02:59;7.60;99.90
2973;DHT22;1496;51.404;7.232;2023-11-21T05:05:27;7.50;99.90
2973;DHT22;1496;51.404;7.232;2023-11-21T05:07:53;7.50;99.90
2973;DHT22;1496;51.404;7.232;2023-11-21T05:10:19;7.40;99.90
2973;DHT22;1496;51.404;7.232;2023-11-21T05:12:45;7.50;99.90
2973;DHT22;1496;51.404;7.232;2023-11-21T05:15:14;7.50;99.90
2973;DHT22;1496;51.404;7.232;2023-11-21T05:17:40;7.60;99.90
2973;DHT22;1496;51.404;7.232;2023-11-21T05:20:10;7.60;99.90
2973;DHT22;1496;51.404;7.232;2023-11-21T05:22:38;7.70;99.90
2973;DHT22;1496;51.404;7.232;2023-11-21T05:25:05;7.70;99.90
2973;DHT22;1496;51.404;7.232;2023-11-21T05:27:30;7.70;99.90
2973;DHT22;1496;51.404;7.232;2023-11-21T05:29:57;7.80;99.90
2973;DHT22;1496;51.404;7.232;2023-11-21T05:32:24;7.80;99.90
2973;DHT22;1496;51.404;7.232;2023-11-21T05:34:49;7.80;99.90
2973;DHT22;1496;51.404;7.232;2023-11-21T05:37:15;7.80;99.90
2973;DHT22;1496;51.404;7.232;2023-11-21T05:39:41;7.80;99.90
2973;DHT22;1496;51.404;7.232;2023-11-21T05:42:06;7.80;99.90
2973;DHT22;1496;51.404;7.232;2023-11-21T05:44:34;7.80;99.90
2973;DHT22;1496;51.404;7.232;2023-11-21T05:47:00;7.80;99.90
2973;DHT22;1496;51.404;7.232;2023-11-21T05:49:26;7.80;99.90
2973;DHT22;1496;51.404;7.232;2023-11-21T05:51:53;7.80;99.90
2973;DHT22;1496;51.404;7.232;2023-11-21T05:54:19;7.90;99.90
2973;DHT22;1496;51.404;7.232;2023-11-21T05:56:45;7.90;99.90
2973;DHT22;1496;51.404;7.232;2023-11-21T05:59:12;7.90;99.90
2973;DHT22;1496;51.404;7.232;2023-11-21T06:01:38;8.00;99.90
2973;DHT22;1496;51.404;7.232;2023-11-21T06:04:06;8.00;99.90
2973;DHT22;1496;51.404;7.232;2023-11-21T06:06:36;8.00;99.90
2973;DHT22;1496;51.404;7.232;2023-11-21T06:09:02;7.90;99.90
2973;DHT22;1496;51.404;7.232;2023-11-21T06:11:27;7.90;99.90
2973;DHT22;1496;51.404;7.232;2023-11-21T06:13:53;8.00;99.90
2973;DHT22;1496;51.404;7.232;2023-11-21T06:16:19;8.00;99.90
2973;DHT22;1496;51.404;7.232;2023-11-21T06:18:47;8.00;99.90
2973;DHT22;1496;51.404;7.232;2023-11-21T06:21:13;8.00;99.90
2973;DHT22;1496;51.404;7.232;2023-11-21T06:23:40;8.00;99.90
2973;DHT22;1496;51.404;7.232;2023-11-21T06:26:06;8.00;99.90
2973;DHT22;1496;51.404;7.232;2023-11-21T06:28:33;8.00;99.90
2973;DHT22;1496;51.404;7.232;2023-11-21T06:30:59;8.10;99.90
2973;DHT22;1496;51.404;7.232;2023-11-21T06:33:33;8.10;99.90
2973;DHT22;1496;51.404;7.232;2023-11-21T06:35:59;8.10;99.90
2973;DHT22;1496;51.404;7.232;2023-11-21T06:38:28;8.10;99.90
2973;DHT22;1496;51.404;7.232;2023-11-21T06:40:58;8.20;99.90
2973;DHT22;1496;51.404;7.232;2023-11-21T06:43:24;8.20;99.90
2973;DHT22;1496;51.404;7.232;2023-11-21T06:45:50;8.30;99.90
2973;DHT22;1496;51.404;7.232;2023-11-21T06:48:15;8.20;99.90
2973;DHT22;1496;51.404;7.232;2023-11-21T06:50:41;8.10;99.90
2973;DHT22;1496;51.404;7.232;2023-11-21T06:53:07;8.10;99.90
2973;DHT22;1496;51.404;7.232;2023-11-21T06:55:34;8.00;99.90
2973;DHT22;1496;51.404;7.232;2023-11-21T06:58:00;7.80;99.90
2973;DHT22;1496;51.404;7.232;2023-11-21T07:00:26;7.70;99.90
2973;DHT22;1496;51.404;7.232;2023-11-21T07:02:55;7.70;99.90
2973;DHT22;1496;51.404;7.232;2023-11-21T07:05:21;7.70;99.90
2973;DHT22;1496;51.404;7.232;2023-11-21T07:07:48;7.60;99.90
2973;DHT22;1496;51.404;7.232;2023-11-21T07:10:15;7.50;99.90
2973;DHT22;1496;51.404;7.232;2023-11-21T07:12:40;7.50;99.90
2973;DHT22;1496;51.404;7.232;2023-11-21T07:15:07;7.40;99.90
2973;DHT22;1496;51.404;7.232;2023-11-21T07:17:37;7.50;99.90
2973;DHT22;1496;51.404;7.232;2023-11-21T07:20:04;7.50;99.90
2973;DHT22;1496;51.404;7.232;2023-11-21T07:22:30;7.50;99.90
2973;DHT22;1496;51.404;7.232;2023-11-21T07:24:55;7.50;99.90
2973;DHT22;1496;51.404;7.232;2023-11-21T07:27:24;7.60;99.90
2973;DHT22;1496;51.404;7.232;2023-11-21T07:29:49;7.70;99.90
2973;DHT22;1496;51.404;7.232;2023-11-21T07:32:15;7.70;99.90
2973;DHT22;1496;51.404;7.232;2023-11-21T07:34:41;7.70;99.90
2973;DHT22;1496;51.404;7.232;2023-11-21T07:37:08;7.70;99.90
2973;DHT22;1496;51.404;7.232;2023-11-21T07:39:35;7.80;99.90
2973;DHT22;1496;51.404;7.232;2023-11-21T07:42:02;7.90;99.90
2973;DHT22;1496;51.404;7.232;2023-11-21T07:44:28;7.90;99.90
2973;DHT22;1496;51.404;7.232;2023-11-21T07:46:54;8.00;99.90
2973;DHT22;1496;51.404;7.232;2023-11-21T07:49:23;8.10;99.90
2973;DHT22;1496;51.404;7.232;2023-11-21T07:51:49;8.20;99.90
2973;DHT22;1496;51.404;7.232;2023-11-21T07:54:15;8.20;99.90
2973;DHT22;1496;51.404;7.232;2023-11-21T07:56:41;8.20;99.90
2973;DHT22;1496;51.404;7.232;2023-11-21T07:59:08;8.30;99.90
2973;DHT22;1496;51.404;7.232;2023-11-21T08:01:33;8.30;99.90
2973;DHT22;1496;51.404;7.232;2023-11-21T08:03:59;8.30;99.90
2973;DHT22;1496;51.404;7.232;2023-11-21T08:06:32;8.30;99.90
2973;DHT22;1496;51.404;7.232;2023-11-21T08:08:59;8.30;99.90
2973;DHT22;1496;51.404;7.232;2023-11-21T08:11:24;8.40;99.90
2973;DHT22;1496;51.404;7.232;2023-11-21T08:13:51;8.40;99.90
2973;DHT22;1496;51.404;7.232;2023-11-21T08:16:17;8.40;99.90
2973;DHT22;1496;51.404;7.232;2023-11-21T08:18:43;8.40;99.90
2973;DHT22;1496;51.404;7.232;2023-11-21T08:21:09;8.30;99.90
2973;DHT22;1496;51.404;7.232;2023-11-21T08:23:37;8.20;99.90
2973;DHT22;1496;51.404;7.232;2023-11-21T08:26:04;8.20;99.90
2973;DHT22;1496;51.404;7.232;2023-11-21T08:28:30;8.30;99.90
2973;DHT22;1496;51.404;7.232;2023-11-21T08:30:56;8.30;99.90
2973;DHT22;1496;51.404;7.232;2023-11-21T08:33:22;8.20;99.90
2973;DHT22;1496;51.404;7.232;2023-11-21T08:35:48;8.10;99.90
2973;DHT22;1496;51.404;7.232;2023-11-21T08:38:14;8.10;99.90
2973;DHT22;1496;51.404;7.232;2023-11-21T08:40:40;8.10;99.90
2973;DHT22;1496;51.404;7.232;2023-11-21T08:43:05;8.10;99.90
2973;DHT22;1496;51.404;7.232;2023-11-21T08:45:32;8.10;99.90
2973;DHT22;1496;51.404;7.232;2023-11-21T08:48:00;8.10;99.90
2973;DHT22;1496;51.404;7.232;2023-11-21T08:50:26;8.10;99.90
2973;DHT22;1496;51.404;7.232;2023-11-21T08:52:52;8.10;99.90
2973;DHT22;1496;51.404;7.232;2023-11-21T08:55:17;8.10;99.90
2973;DHT22;1496;51.404;7.232;2023-11-21T08:57:45;8.20;99.90
2973;DHT22;1496;51.404;7.232;2023-11-21T09:00:14;8.30;99.90
2973;DHT22;1496;51.404;7.232;2023-11-21T09:02:42;8.30;99.90
2973;DHT22;1496;51.404;7.232;2023-11-21T09:05:09;8.30;99.90
2973;DHT22;1496;51.404;7.232;2023-11-21T09:07:36;8.30;99.90
2973;DHT22;1496;51.404;7.232;2023-11-21T09:10:04;8.50;99.90
2973;DHT22;1496;51.404;7.232;2023-11-21T09:12:33;8.50;99.90
2973;DHT22;1496;51.404;7.232;2023-11-21T09:15:04;8.40;99.90
2973;DHT22;1496;51.404;7.232;2023-11-21T09:17:31;8.40;99.90
2973;DHT22;1496;51.404;7.232;2023-11-21T09:19:57;8.40;99.90
2973;DHT22;1496;51.404;7.232;2023-11-21T09:22:22;8.50;99.90
2973;DHT22;1496;51.404;7.232;2023-11-21T09:24:51;8.50;99.90
2973;DHT22;1496;51.404;7.232;2023-11-21T09:27:17;8.50;99.90
2973;DHT22;1496;51.404;7.232;2023-11-21T09:29:43;8.50;99.90
2973;DHT22;1496;51.404;7.232;2023-11-21T09:32:09;8.50;99.90
2973;DHT22;1496;51.404;7.232;2023-11-21T09:34:38;8.40;99.90
2973;DHT22;1496;51.404;7.232;2023-11-21T09:37:07;8.30;99.90
2973;DHT22;1496;51.404;7.232;2023-11-21T09:39:33;8.20;99.90
2973;DHT22;1496;51.404;7.232;2023-11-21T09:42:17;8.20;99.90
2973;DHT22;1496;51.404;7.232;2023-11-21T09:47:35;8.30;99.90
2973;DHT22;1496;51.404;7.232;2023-11-21T09:50:03;8.30;99.90
2973;DHT22;1496;51.404;7.232;2023-11-21T09:52:31;8.30;99.90
2973;DHT22;1496;51.404;7.232;2023-11-21T09:54:58;8.40;99.90
2973;DHT22;1496;51.404;7.232;2023-11-21T09:57:24;8.40;99.90
2973;DHT22;1496;51.404;7.232;2023-11-21T09:59:54;8.50;99.90
2973;DHT22;1496;51.404;7.232;2023-11-21T10:02:28;8.60;99.90
2973;DHT22;1496;51.404;7.232;2023-11-21T10:04:56;8.60;99.90
2973;DHT22;1496;51.404;7.232;2023-11-21T10:07:23;8.60;99.90
2973;DHT22;1496;51.404;7.232;2023-11-21T10:09:51;8.70;99.90
2973;DHT22;1496;51.404;7.232;2023-11-21T10:12:16;8.70;99.90
2973;DHT22;1496;51.404;7.232;2023-11-21T10:14:43;8.70;99.90
2973;DHT22;1496;51.404;7.232;2023-11-21T10:17:12;8.70;99.90
2973;DHT22;1496;51.404;7.232;2023-11-21T10:19:41;8.80;99.90
2973;DHT22;1496;51.404;7.232;2023-11-21T10:22:08;8.70;99.90
2973;DHT22;1496;51.404;7.232;2023-11-21T10:24:34;8.70;99.90
2973;DHT22;1496;51.404;7.232;2023-11-21T10:27:00;8.70;99.90
2973;DHT22;1496;51.404;7.232;2023-11-21T10:29:29;8.60;99.90
2973;DHT22;1496;51.404;7.232;2023-11-21T10:31:55;8.70;99.90
2973;DHT22;1496;51.404;7.232;2023-11-21T10:34:24;8.70;99.90
2973;DHT22;1496;51.404;7.232;2023-11-21T10:36:50;8.70;99.90
2973;DHT22;1496;51.404;7.232;2023-11-21T10:39:20;8.70;99.90
2973;DHT22;1496;51.404;7.232;2023-11-21T10:41:49;8.70;99.90
2973;DHT22;1496;51.404;7.232;2023-11-21T10:44:16;8.70;99.90
2973;DHT22;1496;51.404;7.232;2023-11-21T10:46:55;8.60;99.90
2973;DHT22;1496;51.404;7.232;2023-11-21T10:49:26;8.70;99.90
2973;DHT22;1496;51.404;7.232;2023-11-21T10:51:55;8.70;99.90
2973;DHT22;1496;51.404;7.232;2023-11-21T10:54:22;8.70;99.90
2973;DHT22;1496;51.404;7.232;2023-11-21T10:56:50;8.80;99.90
2973;DHT22;1496;51.404;7.232;2023-11-21T10:59:19;8.70;99.90
2973;DHT22;1496;51.404;7.232;2023-11-21T11:01:46;8.70;99.90
2973;DHT22;1496;51.404;7.232;2023-11-21T11:04:15;8.80;99.90
2973;DHT22;1496;51.404;7.232;2023-11-21T11:06:55;8.80;99.90
2973;DHT22;1496;51.404;7.232;2023-11-21T11:09:23;8.80;99.90
2973;DHT22;1496;51.404;7.232;2023-11-21T11:11:49;8.80;99.90
2973;DHT22;1496;51.404;7.232;2023-11-21T11:14:14;9.00;99.90
2973;DHT22;1496;51.404;7.232;2023-11-21T11:16:41;8.90;99.90
2973;DHT22;1496;51.404;7.232;2023-11-21T11:19:09;9.00;99.90
2973;DHT22;1496;51.404;7.232;2023-11-21T11:22:03;9.10;99.90
2973;DHT22;1496;51.404;7.232;2023-11-21T11:27:34;9.10;99.90
2973;DHT22;1496;51.404;7.232;2023-11-21T11:30:16;9.20;99.90
2973;DHT22;1496;51.404;7.232;2023-11-21T11:33:07;9.20;99.90
2973;DHT22;1496;51.404;7.232;2023-11-21T11:36:01;9.20;99.90
2973;DHT22;1496;51.404;7.232;2023-11-21T11:38:27;9.30;99.90
2973;DHT22;1496;51.404;7.232;2023-11-21T11:40:56;9.30;99.90
2973;DHT22;1496;51.404;7.232;2023-11-21T11:43:26;9.40;99.90
2973;DHT22;1496;51.404;7.232;2023-11-21T11:45:55;9.40;99.90
2973;DHT22;1496;51.404;7.232;2023-11-21T11:48:22;9.30;99.90
2973;DHT22;1496;51.404;7.232;2023-11-21T11:51:10;9.30;99.90
2973;DHT22;1496;51.404;7.232;2023-11-21T11:53:45;9.30;99.90
2973;DHT22;1496;51.404;7.232;2023-11-21T11:56:30;9.20;99.90
2973;DHT22;1496;51.404;7.232;2023-11-21T11:58:59;9.20;99.90
2973;DHT22;1496;51.404;7.232;2023-11-21T12:01:26;9.30;99.90
2973;DHT22;1496;51.404;7.232;2023-11-21T12:06:41;9.30;99.90
2973;DHT22;1496;51.404;7.232;2023-11-21T12:09:07;9.40;99.90
2973;DHT22;1496;51.404;7.232;2023-11-21T12:11:33;9.50;99.90
2973;DHT22;1496;51.404;7.232;2023-11-21T12:14:01;9.60;99.90
2973;DHT22;1496;51.404;7.232;2023-11-21T12:16:28;9.60;99.90
2973;DHT22;1496;51.404;7.232;2023-11-21T12:18:58;9.60;99.90
2973;DHT22;1496;51.404;7.232;2023-11-21T12:21:24;9.70;99.90
2973;DHT22;1496;51.404;7.232;2023-11-21T12:23:50;9.70;99.90
2973;DHT22;1496;51.404;7.232;2023-11-21T12:26:16;9.70;99.90
2973;DHT22;1496;51.404;7.232;2023-11-21T12:28:41;9.80;99.90
2973;DHT22;1496;51.404;7.232;2023-11-21T12:31:10;9.70;99.90
2973;DHT22;1496;51.404;7.232;2023-11-21T12:33:36;9.70;99.90
2973;DHT22;1496;51.404;7.232;2023-11-21T12:36:02;9.70;99.90
2973;DHT22;1496;51.404;7.232;2023-11-21T12:38:34;9.60;99.90
2973;DHT22;1496;51.404;7.232;2023-11-21T12:41:03;9.50;99.90
2973;DHT22;1496;51.404;7.232;2023-11-21T12:43:30;9.50;99.90
2973;DHT22;1496;51.404;7.232;2023-11-21T12:46:12;9.50;99.90
2973;DHT22;1496;51.404;7.232;2023-11-21T12:48:40;9.40;99.90
2973;DHT22;1496;51.404;7.232;2023-11-21T12:51:10;9.40;99.90
2973;DHT22;1496;51.404;7.232;2023-11-21T12:53:38;9.40;99.90
2973;DHT22;1496;51.404;7.232;2023-11-21T12:56:13;9.40;99.90
2973;DHT22;1496;51.404;7.232;2023-11-21T12:58:44;9.40;99.90
2973;DHT22;1496;51.404;7.232;2023-11-21T13:01:13;9.40;99.90
2973;DHT22;1496;51.404;7.232;2023-11-21T13:03:45;9.40;99.90
2973;DHT22;1496;51.404;7.232;2023-11-21T13:06:13;9.40;99.90
2973;DHT22;1496;51.404;7.232;2023-11-21T13:08:38;9.40;99.90
2973;DHT22;1496;51.404;7.232;2023-11-21T13:11:05;9.40;99.90
2973;DHT22;1496;51.404;7.232;2023-11-21T13:13:31;9.40;99.90
2973;DHT22;1496;51.404;7.232;2023-11-21T13:16:01;9.30;99.90
2973;DHT22;1496;51.404;7.232;2023-11-21T13:18:28;9.20;99.90
2973;DHT22;1496;51.404;7.232;2023-11-21T13:20:58;9.20;99.90
2973;DHT22;1496;51.404;7.232;2023-11-21T13:23:25;9.20;99.90
2973;DHT22;1496;51.404;7.232;2023-11-21T13:25:52;9.20;99.90
2973;DHT22;1496;51.404;7.232;2023-11-21T13:28:18;9.10;99.90
2973;DHT22;1496;51.404;7.232;2023-11-21T13:30:46;9.00;99.90
2973;DHT22;1496;51.404;7.232;2023-11-21T13:33:13;9.00;99.90
2973;DHT22;1496;51.404;7.232;2023-11-21T13:35:43;9.00;99.90
2973;DHT22;1496;51.404;7.232;2023-11-21T13:38:15;8.90;99.90
2973;DHT22;1496;51.404;7.232;2023-11-21T13:40:48;8.90;99.90
2973;DHT22;1496;51.404;7.232;2023-11-21T13:43:18;8.90;99.90
2973;DHT22;1496;51.404;7.232;2023-11-21T13:45:46;8.90;99.90
2973;DHT22;1496;51.404;7.232;2023-11-21T13:48:13;8.80;99.90
2973;DHT22;1496;51.404;7.232;2023-11-21T13:50:48;8.80;99.90
2973;DHT22;1496;51.404;7.232;2023-11-21T13:53:23;8.80;99.90
2973;DHT22;1496;51.404;7.232;2023-11-21T13:55:50;8.80;99.90
2973;DHT22;1496;51.404;7.232;2023-11-21T13:58:17;8.80;99.90
2973;DHT22;1496;51.404;7.232;2023-11-21T14:00:50;8.80;99.90
2973;DHT22;1496;51.404;7.232;2023-11-21T14:03:23;8.80;99.90
2973;DHT22;1496;51.404;7.232;2023-11-21T14:05:50;8.80;99.90
2973;DHT22;1496;51.404;7.232;2023-11-21T14:08:23;8.80;99.90
2973;DHT22;1496;51.404;7.232;2023-11-21T14:10:54;8.90;99.90
2973;DHT22;1496;51.404;7.232;2023-11-21T14:13:28;8.80;99.90
2973;DHT22;1496;51.404;7.232;2023-11-21T14:15:54;8.80;99.90
2973;DHT22;1496;51.404;7.232;2023-11-21T14:18:24;8.80;99.90
2973;DHT22;1496;51.404;7.232;2023-11-21T14:21:00;8.80;99.90
2973;DHT22;1496;51.404;7.232;2023-11-21T14:23:26;8.80;99.90
2973;DHT22;1496;51.404;7.232;2023-11-21T14:25:52;8.80;99.90
2973;DHT22;1496;51.404;7.232;2023-11-21T14:28:18;8.80;99.90
2973;DHT22;1496;51.404;7.232;2023-11-21T14:30:47;8.90;99.90
2973;DHT22;1496;51.404;7.232;2023-11-21T14:33:13;8.90;99.90
2973;DHT22;1496;51.404;7.232;2023-11-21T14:35:42;8.90;99.90
2973;DHT22;1496;51.404;7.232;2023-11-21T14:38:09;8.90;99.90
2973;DHT22;1496;51.404;7.232;2023-11-21T14:40:36;8.90;99.90
2973;DHT22;1496;51.404;7.232;2023-11-21T14:43:02;8.80;99.90
2973;DHT22;1496;51.404;7.232;2023-11-21T14:45:32;8.80;99.90
2973;DHT22;1496;51.404;7.232;2023-11-21T14:47:58;8.80;99.90
2973;DHT22;1496;51.404;7.232;2023-11-21T14:50:51;8.80;99.90
2973;DHT22;1496;51.404;7.232;2023-11-21T14:53:37;8.80;99.90
2973;DHT22;1496;51.404;7.232;2023-11-21T14:56:22;8.80;99.90
2973;DHT22;1496;51.404;7.232;2023-11-21T14:58:58;8.80;99.90
2973;DHT22;1496;51.404;7.232;2023-11-21T15:01:42;8.80;99.90
2973;DHT22;1496;51.404;7.232;2023-11-21T15:04:21;8.80;99.90
2973;DHT22;1496;51.404;7.232;2023-11-21T15:07:07;8.80;99.90
2973;DHT22;1496;51.404;7.232;2023-11-21T15:09:33;8.80;99.90
2973;DHT22;1496;51.404;7.232;2023-11-21T15:12:02;8.70;99.90
2973;DHT22;1496;51.404;7.232;2023-11-21T15:14:58;8.60;99.90
2973;DHT22;1496;51.404;7.232;2023-11-21T15:17:24;8.60;99.90
2973;DHT22;1496;51.404;7.232;2023-11-21T15:19:52;8.50;99.90
2973;DHT22;1496;51.404;7.232;2023-11-21T15:22:18;8.50;99.90
2973;DHT22;1496;51.404;7.232;2023-11-21T15:24:44;8.50;99.90
2973;DHT22;1496;51.404;7.232;2023-11-21T15:27:12;8.50;99.90
2973;DHT22;1496;51.404;7.232;2023-11-21T15:29:42;8.40;99.90
2973;DHT22;1496;51.404;7.232;2023-11-21T15:32:08;8.40;99.90
2973;DHT22;1496;51.404;7.232;2023-11-21T15:34:35;8.40;99.90
2973;DHT22;1496;51.404;7.232;2023-11-21T15:37:02;8.40;99.90
2973;DHT22;1496;51.404;7.232;2023-11-21T15:39:28;8.40;99.90
2973;DHT22;1496;51.404;7.232;2023-11-21T15:41:56;8.40;99.90
2973;DHT22;1496;51.404;7.232;2023-11-21T15:44:23;8.40;99.90
2973;DHT22;1496;51.404;7.232;2023-11-21T15:46:50;8.40;99.90
2973;DHT22;1496;51.404;7.232;2023-11-21T15:49:17;8.40;99.90
2973;DHT22;1496;51.404;7.232;2023-11-21T15:51:47;8.40;99.90
2973;DHT22;1496;51.404;7.232;2023-11-21T15:54:22;8.40;99.90
2973;DHT22;1496;51.404;7.232;2023-11-21T15:56:49;8.30;99.90
2973;DHT22;1496;51.404;7.232;2023-11-21T15:59:15;8.30;99.90
2973;DHT22;1496;51.404;7.232;2023-11-21T16:01:42;8.20;99.90
2973;DHT22;1496;51.404;7.232;2023-11-21T16:04:11;8.20;99.90
2973;DHT22;1496;51.404;7.232;2023-11-21T16:06:37;8.10;99.90
2973;DHT22;1496;51.404;7.232;2023-11-21T16:09:07;8.10;99.90
2973;DHT22;1496;51.404;7.232;2023-11-21T16:11:41;7.90;99.90
2973;DHT22;1496;51.404;7.232;2023-11-21T16:14:07;7.90;99.90
2973;DHT22;1496;51.404;7.232;2023-11-21T16:16:33;7.90;99.90
2973;DHT22;1496;51.404;7.232;2023-11-21T16:18:59;7.80;99.90
2973;DHT22;1496;51.404;7.232;2023-11-21T16:21:24;7.70;99.90
2973;DHT22;1496;51.404;7.232;2023-11-21T16:23:51;7.60;99.90
2973;DHT22;1496;51.404;7.232;2023-11-21T16:26:16;7.60;99.90
2973;DHT22;1496;51.404;7.232;2023-11-21T16:28:43;7.50;99.90
2973;DHT22;1496;51.404;7.232;2023-11-21T16:31:09;7.40;99.90